sensor_id;sensor_type;location;lat;lon;timestamp;P1;durP1;ratioP1;P2;durP2;ratioP2
24439;SDS011;12618;54.386;18.394;2023-06-05T00:00:13;10.10;;;6.20;;
24439;SDS011;12618;54.386;18.394;2023-06-05T00:02:48;8.60;;;5.90;;
24439;SDS011;12618;54.386;18.394;2023-06-05T00:05:20;9.20;;;5.90;;
24439;SDS011;12618;54.386;18.394;2023-06-05T00:07:52;9.30;;;6.80;;
24439;SDS011;12618;54.386;18.394;2023-06-05T00:10:26;8.60;;;6.40;;
24439;SDS011;12618;54.386;18.394;2023-06-05T00:12:59;9.10;;;6.30;;
24439;SDS011;12618;54.386;18.394;2023-06-05T00:15:30;11.40;;;6.70;;
24439;SDS011;12618;54.386;18.394;2023-06-05T00:18:05;10.80;;;7.00;;
24439;SDS011;12618;54.386;18.394;2023-06-05T00:20:36;12.40;;;6.20;;
24439;SDS011;12618;54.386;18.394;2023-06-05T00:23:08;11.60;;;6.80;;
24439;SDS011;12618;54.386;18.394;2023-06-05T00:25:40;10.00;;;6.80;;
24439;SDS011;12618;54.386;18.394;2023-06-05T00:28:12;10.40;;;7.00;;
24439;SDS011;12618;54.386;18.394;2023-06-05T00:30:44;10.80;;;7.00;;
24439;SDS011;12618;54.386;18.394;2023-06-05T00:33:16;10.50;;;6.70;;
24439;SDS011;12618;54.386;18.394;2023-06-05T00:35:47;8.20;;;6.40;;
24439;SDS011;12618;54.386;18.394;2023-06-05T00:38:24;12.70;;;7.20;;
24439;SDS011;12618;54.386;18.394;2023-06-05T00:40:56;10.20;;;6.70;;
24439;SDS011;12618;54.386;18.394;2023-06-05T00:43:28;14.50;;;7.10;;
24439;SDS011;12618;54.386;18.394;2023-06-05T00:46:00;9.70;;;6.70;;
24439;SDS011;12618;54.386;18.394;2023-06-05T00:48:34;11.60;;;6.60;;
24439;SDS011;12618;54.386;18.394;2023-06-05T00:51:06;9.90;;;6.60;;
24439;SDS011;12618;54.386;18.394;2023-06-05T00:53:41;13.60;;;7.30;;
24439;SDS011;12618;54.386;18.394;2023-06-05T00:56:17;14.80;;;7.10;;
24439;SDS011;12618;54.386;18.394;2023-06-05T00:58:52;15.10;;;6.90;;
24439;SDS011;12618;54.386;18.394;2023-06-05T01:01:26;11.00;;;6.90;;
24439;SDS011;12618;54.386;18.394;2023-06-05T01:04:00;17.10;;;7.00;;
24439;SDS011;12618;54.386;18.394;2023-06-05T01:06:32;13.50;;;6.30;;
24439;SDS011;12618;54.386;18.394;2023-06-05T01:09:05;11.20;;;6.30;;
24439;SDS011;12618;54.386;18.394;2023-06-05T01:14:19;12.40;;;6.60;;
24439;SDS011;12618;54.386;18.394;2023-06-05T01:16:59;14.10;;;6.10;;
24439;SDS011;12618;54.386;18.394;2023-06-05T01:19:34;12.50;;;6.40;;
24439;SDS011;12618;54.386;18.394;2023-06-05T01:22:06;11.90;;;6.70;;
24439;SDS011;12618;54.386;18.394;2023-06-05T01:24:38;11.70;;;6.30;;
24439;SDS011;12618;54.386;18.394;2023-06-05T01:27:15;9.90;;;6.40;;
24439;SDS011;12618;54.386;18.394;2023-06-05T01:30:07;11.10;;;5.90;;
24439;SDS011;12618;54.386;18.394;2023-06-05T01:35:48;10.20;;;5.90;;
24439;SDS011;12618;54.386;18.394;2023-06-05T01:38:23;7.90;;;5.80;;
24439;SDS011;12618;54.386;18.394;2023-06-05T01:40:55;9.10;;;5.60;;
24439;SDS011;12618;54.386;18.394;2023-06-05T01:43:29;9.80;;;5.80;;
24439;SDS011;12618;54.386;18.394;2023-06-05T01:46:02;8.90;;;5.70;;
24439;SDS011;12618;54.386;18.394;2023-06-05T01:48:37;8.90;;;5.40;;
24439;SDS011;12618;54.386;18.394;2023-06-05T01:51:14;8.10;;;5.10;;
24439;SDS011;12618;54.386;18.394;2023-06-05T01:53:45;9.10;;;5.80;;
24439;SDS011;12618;54.386;18.394;2023-06-05T01:56:20;9.20;;;5.60;;
24439;SDS011;12618;54.386;18.394;2023-06-05T01:58:55;10.40;;;5.10;;
24439;SDS011;12618;54.386;18.394;2023-06-05T02:01:27;7.90;;;5.50;;
24439;SDS011;12618;54.386;18.394;2023-06-05T02:04:00;6.90;;;5.00;;
24439;SDS011;12618;54.386;18.394;2023-06-05T02:06:36;9.20;;;4.70;;
24439;SDS011;12618;54.386;18.394;2023-06-05T02:09:13;8.20;;;5.40;;
24439;SDS011;12618;54.386;18.394;2023-06-05T02:11:45;9.50;;;5.30;;
24439;SDS011;12618;54.386;18.394;2023-06-05T02:14:17;7.30;;;5.10;;
24439;SDS011;12618;54.386;18.394;2023-06-05T02:16:51;9.30;;;4.80;;
24439;SDS011;12618;54.386;18.394;2023-06-05T02:19:22;7.40;;;5.10;;
24439;SDS011;12618;54.386;18.394;2023-06-05T02:21:54;8.00;;;5.20;;
24439;SDS011;12618;54.386;18.394;2023-06-05T02:24:26;7.70;;;5.30;;
24439;SDS011;12618;54.386;18.394;2023-06-05T02:26:58;9.40;;;5.90;;
24439;SDS011;12618;54.386;18.394;2023-06-05T02:29:30;11.50;;;5.30;;
24439;SDS011;12618;54.386;18.394;2023-06-05T02:32:02;9.50;;;5.60;;
24439;SDS011;12618;54.386;18.394;2023-06-05T02:34:35;9.40;;;5.20;;
24439;SDS011;12618;54.386;18.394;2023-06-05T02:37:07;13.10;;;5.20;;
24439;SDS011;12618;54.386;18.394;2023-06-05T02:39:39;9.20;;;5.10;;
24439;SDS011;12618;54.386;18.394;2023-06-05T02:42:11;7.70;;;5.20;;
24439;SDS011;12618;54.386;18.394;2023-06-05T02:44:44;10.80;;;5.30;;
24439;SDS011;12618;54.386;18.394;2023-06-05T02:47:16;10.10;;;5.00;;
24439;SDS011;12618;54.386;18.394;2023-06-05T02:49:48;9.40;;;5.00;;
24439;SDS011;12618;54.386;18.394;2023-06-05T02:52:19;8.40;;;5.10;;
24439;SDS011;12618;54.386;18.394;2023-06-05T02:54:53;9.10;;;5.20;;
24439;SDS011;12618;54.386;18.394;2023-06-05T02:57:25;8.10;;;5.30;;
24439;SDS011;12618;54.386;18.394;2023-06-05T02:59:58;9.10;;;5.20;;
24439;SDS011;12618;54.386;18.394;2023-06-05T03:02:30;8.20;;;5.10;;
24439;SDS011;12618;54.386;18.394;2023-06-05T03:05:02;10.10;;;5.80;;
24439;SDS011;12618;54.386;18.394;2023-06-05T03:07:35;7.10;;;5.40;;
24439;SDS011;12618;54.386;18.394;2023-06-05T03:10:07;12.80;;;4.90;;
24439;SDS011;12618;54.386;18.394;2023-06-05T03:12:39;8.20;;;5.30;;
24439;SDS011;12618;54.386;18.394;2023-06-05T03:15:11;10.10;;;5.40;;
24439;SDS011;12618;54.386;18.394;2023-06-05T03:17:43;11.00;;;5.70;;
24439;SDS011;12618;54.386;18.394;2023-06-05T03:20:19;10.20;;;5.40;;
24439;SDS011;12618;54.386;18.394;2023-06-05T03:22:51;7.80;;;5.30;;
24439;SDS011;12618;54.386;18.394;2023-06-05T03:25:22;10.10;;;5.10;;
24439;SDS011;12618;54.386;18.394;2023-06-05T03:27:54;12.20;;;6.20;;
24439;SDS011;12618;54.386;18.394;2023-06-05T03:30:28;14.20;;;6.50;;
24439;SDS011;12618;54.386;18.394;2023-06-05T03:33:00;9.50;;;5.60;;
24439;SDS011;12618;54.386;18.394;2023-06-05T03:35:33;8.30;;;5.10;;
24439;SDS011;12618;54.386;18.394;2023-06-05T03:38:06;10.70;;;4.80;;
24439;SDS011;12618;54.386;18.394;2023-06-05T03:40:38;9.40;;;4.90;;
24439;SDS011;12618;54.386;18.394;2023-06-05T03:43:10;10.00;;;4.80;;
24439;SDS011;12618;54.386;18.394;2023-06-05T03:45:42;7.90;;;4.50;;
24439;SDS011;12618;54.386;18.394;2023-06-05T03:48:13;7.40;;;4.20;;
24439;SDS011;12618;54.386;18.394;2023-06-05T03:50:45;7.10;;;4.20;;
24439;SDS011;12618;54.386;18.394;2023-06-05T03:53:19;8.10;;;4.50;;
24439;SDS011;12618;54.386;18.394;2023-06-05T03:55:51;8.80;;;4.30;;
24439;SDS011;12618;54.386;18.394;2023-06-05T03:58:24;7.50;;;4.20;;
24439;SDS011;12618;54.386;18.394;2023-06-05T04:00:57;6.10;;;3.90;;
24439;SDS011;12618;54.386;18.394;2023-06-05T04:03:29;7.50;;;4.30;;
24439;SDS011;12618;54.386;18.394;2023-06-05T04:06:01;8.60;;;4.40;;
24439;SDS011;12618;54.386;18.394;2023-06-05T04:08:33;12.50;;;3.90;;
24439;SDS011;12618;54.386;18.394;2023-06-05T04:11:05;7.50;;;3.60;;
24439;SDS011;12618;54.386;18.394;2023-06-05T04:13:37;8.70;;;3.70;;
24439;SDS011;12618;54.386;18.394;2023-06-05T04:16:08;7.90;;;4.00;;
24439;SDS011;12618;54.386;18.394;2023-06-05T04:18:42;8.30;;;4.50;;
24439;SDS011;12618;54.386;18.394;2023-06-05T04:21:14;8.40;;;4.60;;
24439;SDS011;12618;54.386;18.394;2023-06-05T04:23:46;9.90;;;4.90;;
24439;SDS011;12618;54.386;18.394;2023-06-05T04:26:17;8.70;;;5.00;;
24439;SDS011;12618;54.386;18.394;2023-06-05T04:28:50;11.80;;;5.50;;
24439;SDS011;12618;54.386;18.394;2023-06-05T04:31:22;7.60;;;5.00;;
24439;SDS011;12618;54.386;18.394;2023-06-05T04:33:56;11.10;;;5.50;;
24439;SDS011;12618;54.386;18.394;2023-06-05T04:36:28;8.90;;;5.50;;
24439;SDS011;12618;54.386;18.394;2023-06-05T04:39:00;12.80;;;5.80;;
24439;SDS011;12618;54.386;18.394;2023-06-05T04:41:45;11.90;;;5.70;;
24439;SDS011;12618;54.386;18.394;2023-06-05T04:44:27;14.40;;;6.00;;
24439;SDS011;12618;54.386;18.394;2023-06-05T04:46:59;12.10;;;6.00;;
24439;SDS011;12618;54.386;18.394;2023-06-05T04:49:31;12.00;;;6.80;;
24439;SDS011;12618;54.386;18.394;2023-06-05T04:52:03;14.90;;;5.90;;
24439;SDS011;12618;54.386;18.394;2023-06-05T04:54:35;9.50;;;5.40;;
24439;SDS011;12618;54.386;18.394;2023-06-05T04:57:07;8.80;;;4.30;;
24439;SDS011;12618;54.386;18.394;2023-06-05T04:59:39;10.40;;;4.40;;
24439;SDS011;12618;54.386;18.394;2023-06-05T05:02:11;12.80;;;5.20;;
24439;SDS011;12618;54.386;18.394;2023-06-05T05:04:43;14.10;;;5.30;;
24439;SDS011;12618;54.386;18.394;2023-06-05T05:07:15;12.90;;;5.60;;
24439;SDS011;12618;54.386;18.394;2023-06-05T05:09:48;8.40;;;4.60;;
24439;SDS011;12618;54.386;18.394;2023-06-05T05:12:20;7.50;;;4.50;;
24439;SDS011;12618;54.386;18.394;2023-06-05T05:14:51;7.10;;;4.30;;
24439;SDS011;12618;54.386;18.394;2023-06-05T05:17:23;8.20;;;3.80;;
24439;SDS011;12618;54.386;18.394;2023-06-05T05:19:55;5.20;;;2.90;;
24439;SDS011;12618;54.386;18.394;2023-06-05T05:22:27;5.80;;;2.70;;
24439;SDS011;12618;54.386;18.394;2023-06-05T05:24:58;8.00;;;2.60;;
24439;SDS011;12618;54.386;18.394;2023-06-05T05:27:30;4.50;;;2.80;;
24439;SDS011;12618;54.386;18.394;2023-06-05T05:30:02;5.00;;;2.50;;
24439;SDS011;12618;54.386;18.394;2023-06-05T05:32:34;6.10;;;2.80;;
24439;SDS011;12618;54.386;18.394;2023-06-05T05:35:06;5.40;;;2.70;;
24439;SDS011;12618;54.386;18.394;2023-06-05T05:37:38;2.50;;;1.80;;
24439;SDS011;12618;54.386;18.394;2023-06-05T05:40:10;5.40;;;1.90;;
24439;SDS011;12618;54.386;18.394;2023-06-05T05:42:45;4.10;;;1.60;;
24439;SDS011;12618;54.386;18.394;2023-06-05T05:45:16;2.70;;;1.60;;
24439;SDS011;12618;54.386;18.394;2023-06-05T05:47:48;3.10;;;1.90;;
24439;SDS011;12618;54.386;18.394;2023-06-05T05:50:20;2.10;;;1.60;;
24439;SDS011;12618;54.386;18.394;2023-06-05T05:52:51;4.60;;;1.60;;
24439;SDS011;12618;54.386;18.394;2023-06-05T05:55:24;3.40;;;1.80;;
24439;SDS011;12618;54.386;18.394;2023-06-05T05:57:56;4.40;;;2.00;;
24439;SDS011;12618;54.386;18.394;2023-06-05T06:00:27;22.70;;;3.70;;
24439;SDS011;12618;54.386;18.394;2023-06-05T06:03:00;8.50;;;2.90;;
24439;SDS011;12618;54.386;18.394;2023-06-05T06:05:32;9.20;;;3.20;;
24439;SDS011;12618;54.386;18.394;2023-06-05T06:08:04;5.10;;;2.70;;
24439;SDS011;12618;54.386;18.394;2023-06-05T06:10:36;6.20;;;2.40;;
24439;SDS011;12618;54.386;18.394;2023-06-05T06:13:08;6.80;;;2.40;;
24439;SDS011;12618;54.386;18.394;2023-06-05T06:15:41;6.40;;;2.20;;
24439;SDS011;12618;54.386;18.394;2023-06-05T06:18:14;7.90;;;2.50;;
24439;SDS011;12618;54.386;18.394;2023-06-05T06:20:45;27.40;;;4.00;;
24439;SDS011;12618;54.386;18.394;2023-06-05T06:23:18;6.00;;;2.20;;
24439;SDS011;12618;54.386;18.394;2023-06-05T06:25:50;4.60;;;2.00;;
24439;SDS011;12618;54.386;18.394;2023-06-05T06:30:56;5.20;;;1.70;;
24439;SDS011;12618;54.386;18.394;2023-06-05T06:33:28;5.80;;;2.00;;
24439;SDS011;12618;54.386;18.394;2023-06-05T06:36:00;5.20;;;1.70;;
24439;SDS011;12618;54.386;18.394;2023-06-05T06:38:32;7.00;;;2.30;;
24439;SDS011;12618;54.386;18.394;2023-06-05T06:41:04;3.50;;;1.90;;
24439;SDS011;12618;54.386;18.394;2023-06-05T06:43:35;5.80;;;1.90;;
24439;SDS011;12618;54.386;18.394;2023-06-05T06:46:07;9.30;;;2.10;;
24439;SDS011;12618;54.386;18.394;2023-06-05T06:48:39;6.60;;;2.30;;
24439;SDS011;12618;54.386;18.394;2023-06-05T06:51:10;25.20;;;2.80;;
24439;SDS011;12618;54.386;18.394;2023-06-05T06:53:43;8.80;;;1.90;;
24439;SDS011;12618;54.386;18.394;2023-06-05T06:56:15;8.30;;;1.80;;
24439;SDS011;12618;54.386;18.394;2023-06-05T06:58:49;7.50;;;1.40;;
24439;SDS011;12618;54.386;18.394;2023-06-05T07:01:21;17.10;;;1.90;;
24439;SDS011;12618;54.386;18.394;2023-06-05T07:03:52;6.60;;;1.30;;
24439;SDS011;12618;54.386;18.394;2023-06-05T07:06:25;4.00;;;1.20;;
24439;SDS011;12618;54.386;18.394;2023-06-05T07:08:57;2.80;;;1.30;;
24439;SDS011;12618;54.386;18.394;2023-06-05T07:11:28;6.10;;;1.10;;
24439;SDS011;12618;54.386;18.394;2023-06-05T07:14:00;3.50;;;1.00;;
24439;SDS011;12618;54.386;18.394;2023-06-05T07:16:32;5.20;;;1.10;;
24439;SDS011;12618;54.386;18.394;2023-06-05T07:19:03;4.30;;;1.20;;
24439;SDS011;12618;54.386;18.394;2023-06-05T07:21:35;2.60;;;1.10;;
24439;SDS011;12618;54.386;18.394;2023-06-05T07:24:09;5.40;;;1.00;;
24439;SDS011;12618;54.386;18.394;2023-06-05T07:26:41;2.80;;;1.00;;
24439;SDS011;12618;54.386;18.394;2023-06-05T07:29:13;5.00;;;1.10;;
24439;SDS011;12618;54.386;18.394;2023-06-05T07:31:46;3.90;;;1.10;;
24439;SDS011;12618;54.386;18.394;2023-06-05T07:34:19;3.00;;;0.90;;
24439;SDS011;12618;54.386;18.394;2023-06-05T07:36:52;3.30;;;1.00;;
24439;SDS011;12618;54.386;18.394;2023-06-05T07:39:24;3.00;;;1.00;;
24439;SDS011;12618;54.386;18.394;2023-06-05T07:41:56;2.80;;;1.10;;
24439;SDS011;12618;54.386;18.394;2023-06-05T07:44:28;3.40;;;1.10;;
24439;SDS011;12618;54.386;18.394;2023-06-05T07:46:59;5.70;;;0.80;;
24439;SDS011;12618;54.386;18.394;2023-06-05T07:49:31;1.20;;;0.80;;
24439;SDS011;12618;54.386;18.394;2023-06-05T07:52:03;7.00;;;1.30;;
24439;SDS011;12618;54.386;18.394;2023-06-05T07:54:35;1.90;;;1.00;;
24439;SDS011;12618;54.386;18.394;2023-06-05T07:57:09;2.50;;;0.90;;
24439;SDS011;12618;54.386;18.394;2023-06-05T07:59:41;5.80;;;0.90;;
24439;SDS011;12618;54.386;18.394;2023-06-05T08:02:12;9.80;;;1.50;;
24439;SDS011;12618;54.386;18.394;2023-06-05T08:04:45;3.80;;;1.00;;
24439;SDS011;12618;54.386;18.394;2023-06-05T08:07:17;6.30;;;1.00;;
24439;SDS011;12618;54.386;18.394;2023-06-05T08:09:49;2.60;;;0.90;;
24439;SDS011;12618;54.386;18.394;2023-06-05T08:12:20;3.40;;;0.80;;
24439;SDS011;12618;54.386;18.394;2023-06-05T08:14:52;14.70;;;1.50;;
24439;SDS011;12618;54.386;18.394;2023-06-05T08:17:24;9.10;;;1.00;;
24439;SDS011;12618;54.386;18.394;2023-06-05T08:19:59;6.30;;;0.80;;
24439;SDS011;12618;54.386;18.394;2023-06-05T08:22:31;8.90;;;1.30;;
24439;SDS011;12618;54.386;18.394;2023-06-05T08:25:04;6.00;;;1.20;;
24439;SDS011;12618;54.386;18.394;2023-06-05T08:27:35;4.10;;;0.90;;
24439;SDS011;12618;54.386;18.394;2023-06-05T08:30:07;1.90;;;0.90;;
24439;SDS011;12618;54.386;18.394;2023-06-05T08:32:39;6.60;;;1.10;;
24439;SDS011;12618;54.386;18.394;2023-06-05T08:35:11;3.00;;;0.90;;
24439;SDS011;12618;54.386;18.394;2023-06-05T08:37:43;1.80;;;0.90;;
24439;SDS011;12618;54.386;18.394;2023-06-05T08:40:18;1.90;;;0.90;;
24439;SDS011;12618;54.386;18.394;2023-06-05T08:42:50;2.70;;;0.90;;
24439;SDS011;12618;54.386;18.394;2023-06-05T08:45:22;2.80;;;0.90;;
24439;SDS011;12618;54.386;18.394;2023-06-05T08:47:54;6.30;;;1.10;;
24439;SDS011;12618;54.386;18.394;2023-06-05T08:50:27;3.30;;;0.90;;
24439;SDS011;12618;54.386;18.394;2023-06-05T08:53:00;4.00;;;1.10;;
24439;SDS011;12618;54.386;18.394;2023-06-05T08:55:33;5.60;;;1.00;;
24439;SDS011;12618;54.386;18.394;2023-06-05T08:58:05;4.40;;;0.90;;
24439;SDS011;12618;54.386;18.394;2023-06-05T09:00:37;4.80;;;1.10;;
24439;SDS011;12618;54.386;18.394;2023-06-05T09:03:10;7.10;;;1.20;;
24439;SDS011;12618;54.386;18.394;2023-06-05T09:05:46;9.30;;;1.20;;
24439;SDS011;12618;54.386;18.394;2023-06-05T09:08:27;3.40;;;1.00;;
24439;SDS011;12618;54.386;18.394;2023-06-05T09:14:00;3.60;;;1.00;;
24439;SDS011;12618;54.386;18.394;2023-06-05T09:16:40;4.30;;;1.10;;
24439;SDS011;12618;54.386;18.394;2023-06-05T09:19:15;5.10;;;1.10;;
24439;SDS011;12618;54.386;18.394;2023-06-05T09:21:56;7.20;;;1.10;;
24439;SDS011;12618;54.386;18.394;2023-06-05T09:24:27;5.00;;;1.50;;
24439;SDS011;12618;54.386;18.394;2023-06-05T09:27:05;5.90;;;1.20;;
24439;SDS011;12618;54.386;18.394;2023-06-05T09:29:38;22.40;;;1.80;;
24439;SDS011;12618;54.386;18.394;2023-06-05T09:34:47;3.70;;;1.10;;
24439;SDS011;12618;54.386;18.394;2023-06-05T09:37:34;2.70;;;1.10;;
24439;SDS011;12618;54.386;18.394;2023-06-05T09:40:07;2.30;;;1.20;;
24439;SDS011;12618;54.386;18.394;2023-06-05T09:42:40;9.30;;;1.40;;
24439;SDS011;12618;54.386;18.394;2023-06-05T09:45:11;6.70;;;1.10;;
24439;SDS011;12618;54.386;18.394;2023-06-05T09:47:43;3.20;;;1.00;;
24439;SDS011;12618;54.386;18.394;2023-06-05T09:50:24;9.50;;;1.90;;
24439;SDS011;12618;54.386;18.394;2023-06-05T09:52:56;4.30;;;1.30;;
24439;SDS011;12618;54.386;18.394;2023-06-05T09:55:29;16.60;;;1.60;;
24439;SDS011;12618;54.386;18.394;2023-06-05T09:58:01;7.50;;;1.50;;
24439;SDS011;12618;54.386;18.394;2023-06-05T10:00:41;3.70;;;1.30;;
24439;SDS011;12618;54.386;18.394;2023-06-05T10:03:14;5.60;;;1.10;;
24439;SDS011;12618;54.386;18.394;2023-06-05T10:05:48;5.70;;;1.40;;
24439;SDS011;12618;54.386;18.394;2023-06-05T10:08:20;42.60;;;3.80;;
24439;SDS011;12618;54.386;18.394;2023-06-05T10:10:52;6.50;;;1.70;;
24439;SDS011;12618;54.386;18.394;2023-06-05T10:13:24;5.10;;;1.30;;
24439;SDS011;12618;54.386;18.394;2023-06-05T10:15:59;5.20;;;1.40;;
24439;SDS011;12618;54.386;18.394;2023-06-05T10:18:33;8.70;;;1.60;;
24439;SDS011;12618;54.386;18.394;2023-06-05T10:21:05;7.20;;;1.40;;
24439;SDS011;12618;54.386;18.394;2023-06-05T10:26:11;3.50;;;1.30;;
24439;SDS011;12618;54.386;18.394;2023-06-05T10:28:59;4.90;;;1.50;;
24439;SDS011;12618;54.386;18.394;2023-06-05T10:31:52;6.60;;;1.70;;
24439;SDS011;12618;54.386;18.394;2023-06-05T10:37:12;6.80;;;1.30;;
24439;SDS011;12618;54.386;18.394;2023-06-05T10:40:00;9.30;;;1.40;;
24439;SDS011;12618;54.386;18.394;2023-06-05T10:42:32;6.60;;;1.60;;
24439;SDS011;12618;54.386;18.394;2023-06-05T10:45:05;10.20;;;2.80;;
24439;SDS011;12618;54.386;18.394;2023-06-05T10:52:48;3.40;;;1.30;;
24439;SDS011;12618;54.386;18.394;2023-06-05T10:55:21;7.60;;;1.80;;
24439;SDS011;12618;54.386;18.394;2023-06-05T10:58:03;3.20;;;1.40;;
24439;SDS011;12618;54.386;18.394;2023-06-05T11:01:15;8.70;;;1.70;;
24439;SDS011;12618;54.386;18.394;2023-06-05T11:04:00;6.00;;;1.50;;
24439;SDS011;12618;54.386;18.394;2023-06-05T11:06:32;13.70;;;2.40;;
24439;SDS011;12618;54.386;18.394;2023-06-05T11:12:02;5.00;;;1.60;;
24439;SDS011;12618;54.386;18.394;2023-06-05T11:14:55;3.30;;;1.40;;
24439;SDS011;12618;54.386;18.394;2023-06-05T11:17:26;4.70;;;1.50;;
24439;SDS011;12618;54.386;18.394;2023-06-05T11:19:59;7.70;;;1.80;;
24439;SDS011;12618;54.386;18.394;2023-06-05T11:22:32;7.20;;;1.70;;
24439;SDS011;12618;54.386;18.394;2023-06-05T11:27:56;6.10;;;1.60;;
24439;SDS011;12618;54.386;18.394;2023-06-05T11:33:19;4.40;;;1.40;;
24439;SDS011;12618;54.386;18.394;2023-06-05T11:35:58;11.50;;;1.60;;
24439;SDS011;12618;54.386;18.394;2023-06-05T11:38:32;6.40;;;1.80;;
24439;SDS011;12618;54.386;18.394;2023-06-05T11:41:05;12.80;;;1.90;;
24439;SDS011;12618;54.386;18.394;2023-06-05T11:46:13;12.10;;;2.10;;
24439;SDS011;12618;54.386;18.394;2023-06-05T11:48:45;14.00;;;2.00;;
24439;SDS011;12618;54.386;18.394;2023-06-05T11:51:17;9.60;;;1.80;;
24439;SDS011;12618;54.386;18.394;2023-06-05T11:53:49;8.10;;;1.60;;
24439;SDS011;12618;54.386;18.394;2023-06-05T11:56:21;5.30;;;1.80;;
24439;SDS011;12618;54.386;18.394;2023-06-05T11:58:53;5.30;;;1.50;;
24439;SDS011;12618;54.386;18.394;2023-06-05T12:01:25;5.70;;;1.50;;
24439;SDS011;12618;54.386;18.394;2023-06-05T12:04:03;6.90;;;1.50;;
24439;SDS011;12618;54.386;18.394;2023-06-05T12:06:40;5.70;;;1.50;;
24439;SDS011;12618;54.386;18.394;2023-06-05T12:09:13;6.00;;;1.20;;
24439;SDS011;12618;54.386;18.394;2023-06-05T12:11:47;3.50;;;1.30;;
24439;SDS011;12618;54.386;18.394;2023-06-05T12:14:29;3.00;;;1.40;;
24439;SDS011;12618;54.386;18.394;2023-06-05T12:17:09;7.80;;;1.50;;
24439;SDS011;12618;54.386;18.394;2023-06-05T12:19:41;4.60;;;1.20;;
24439;SDS011;12618;54.386;18.394;2023-06-05T12:22:13;9.20;;;2.00;;
24439;SDS011;12618;54.386;18.394;2023-06-05T12:24:45;4.40;;;1.60;;
24439;SDS011;12618;54.386;18.394;2023-06-05T12:27:17;5.10;;;1.70;;
24439;SDS011;12618;54.386;18.394;2023-06-05T12:30:00;3.60;;;1.30;;
24439;SDS011;12618;54.386;18.394;2023-06-05T12:32:32;15.10;;;2.40;;
24439;SDS011;12618;54.386;18.394;2023-06-05T12:35:04;5.40;;;1.70;;
24439;SDS011;12618;54.386;18.394;2023-06-05T12:37:39;3.70;;;1.60;;
24439;SDS011;12618;54.386;18.394;2023-06-05T12:40:14;16.90;;;2.20;;
24439;SDS011;12618;54.386;18.394;2023-06-05T12:43:15;18.00;;;2.30;;
24439;SDS011;12618;54.386;18.394;2023-06-05T12:45:49;8.00;;;1.80;;
24439;SDS011;12618;54.386;18.394;2023-06-05T12:48:21;3.10;;;1.30;;
24439;SDS011;12618;54.386;18.394;2023-06-05T12:50:55;7.50;;;1.90;;
24439;SDS011;12618;54.386;18.394;2023-06-05T12:53:28;5.80;;;1.60;;
24439;SDS011;12618;54.386;18.394;2023-06-05T12:55:59;6.10;;;1.50;;
24439;SDS011;12618;54.386;18.394;2023-06-05T12:58:31;10.70;;;1.70;;
24439;SDS011;12618;54.386;18.394;2023-06-05T13:01:03;15.50;;;2.20;;
24439;SDS011;12618;54.386;18.394;2023-06-05T13:03:35;4.90;;;1.70;;
24439;SDS011;12618;54.386;18.394;2023-06-05T13:06:07;9.40;;;1.70;;
24439;SDS011;12618;54.386;18.394;2023-06-05T13:08:40;2.80;;;1.40;;
24439;SDS011;12618;54.386;18.394;2023-06-05T13:11:14;8.30;;;1.50;;
24439;SDS011;12618;54.386;18.394;2023-06-05T13:13:46;13.80;;;2.00;;
24439;SDS011;12618;54.386;18.394;2023-06-05T13:16:20;8.60;;;1.90;;
24439;SDS011;12618;54.386;18.394;2023-06-05T13:18:52;4.90;;;1.70;;
24439;SDS011;12618;54.386;18.394;2023-06-05T13:21:23;7.60;;;1.60;;
24439;SDS011;12618;54.386;18.394;2023-06-05T13:23:56;3.70;;;1.20;;
24439;SDS011;12618;54.386;18.394;2023-06-05T13:26:28;3.60;;;1.30;;
24439;SDS011;12618;54.386;18.394;2023-06-05T13:29:00;4.20;;;1.50;;
24439;SDS011;12618;54.386;18.394;2023-06-05T13:31:31;5.10;;;1.60;;
24439;SDS011;12618;54.386;18.394;2023-06-05T13:34:03;18.70;;;2.30;;
24439;SDS011;12618;54.386;18.394;2023-06-05T13:36:35;5.50;;;1.50;;
24439;SDS011;12618;54.386;18.394;2023-06-05T13:39:07;3.00;;;1.60;;
24439;SDS011;12618;54.386;18.394;2023-06-05T13:41:39;5.30;;;1.30;;
24439;SDS011;12618;54.386;18.394;2023-06-05T13:44:11;1.90;;;1.50;;
24439;SDS011;12618;54.386;18.394;2023-06-05T13:46:44;48.50;;;5.10;;
24439;SDS011;12618;54.386;18.394;2023-06-05T13:49:16;4.90;;;1.50;;
24439;SDS011;12618;54.386;18.394;2023-06-05T13:51:47;2.80;;;1.20;;
24439;SDS011;12618;54.386;18.394;2023-06-05T13:54:19;3.00;;;1.30;;
24439;SDS011;12618;54.386;18.394;2023-06-05T13:56:51;3.00;;;1.10;;
24439;SDS011;12618;54.386;18.394;2023-06-05T13:59:23;5.50;;;1.50;;
24439;SDS011;12618;54.386;18.394;2023-06-05T14:01:54;2.90;;;1.30;;
24439;SDS011;12618;54.386;18.394;2023-06-05T14:04:26;13.50;;;1.70;;
24439;SDS011;12618;54.386;18.394;2023-06-05T14:06:58;8.10;;;1.40;;
24439;SDS011;12618;54.386;18.394;2023-06-05T14:09:30;13.20;;;1.40;;
24439;SDS011;12618;54.386;18.394;2023-06-05T14:12:02;1.40;;;1.20;;
24439;SDS011;12618;54.386;18.394;2023-06-05T14:14:34;4.90;;;1.20;;
24439;SDS011;12618;54.386;18.394;2023-06-05T14:17:06;1.90;;;1.00;;
24439;SDS011;12618;54.386;18.394;2023-06-05T14:19:37;14.00;;;1.60;;
24439;SDS011;12618;54.386;18.394;2023-06-05T14:22:09;2.90;;;1.00;;
24439;SDS011;12618;54.386;18.394;2023-06-05T14:24:41;2.90;;;1.00;;
24439;SDS011;12618;54.386;18.394;2023-06-05T14:27:13;5.90;;;1.30;;
24439;SDS011;12618;54.386;18.394;2023-06-05T14:29:47;20.90;;;2.10;;
24439;SDS011;12618;54.386;18.394;2023-06-05T14:32:18;4.40;;;1.20;;
24439;SDS011;12618;54.386;18.394;2023-06-05T14:34:50;1.30;;;1.00;;
24439;SDS011;12618;54.386;18.394;2023-06-05T14:37:21;7.20;;;1.50;;
24439;SDS011;12618;54.386;18.394;2023-06-05T14:39:53;14.50;;;2.00;;
24439;SDS011;12618;54.386;18.394;2023-06-05T14:42:25;5.60;;;1.20;;
24439;SDS011;12618;54.386;18.394;2023-06-05T14:44:57;9.00;;;1.50;;
24439;SDS011;12618;54.386;18.394;2023-06-05T14:47:28;6.70;;;1.30;;
24439;SDS011;12618;54.386;18.394;2023-06-05T14:50:00;3.60;;;1.60;;
24439;SDS011;12618;54.386;18.394;2023-06-05T14:52:32;5.90;;;1.50;;
24439;SDS011;12618;54.386;18.394;2023-06-05T14:55:04;4.20;;;1.10;;
24439;SDS011;12618;54.386;18.394;2023-06-05T14:57:37;5.50;;;1.20;;
24439;SDS011;12618;54.386;18.394;2023-06-05T15:00:11;4.90;;;1.40;;
24439;SDS011;12618;54.386;18.394;2023-06-05T15:02:43;6.70;;;1.40;;
24439;SDS011;12618;54.386;18.394;2023-06-05T15:05:14;8.00;;;1.60;;
24439;SDS011;12618;54.386;18.394;2023-06-05T15:07:47;11.90;;;2.10;;
24439;SDS011;12618;54.386;18.394;2023-06-05T15:10:19;13.10;;;1.80;;
24439;SDS011;12618;54.386;18.394;2023-06-05T15:12:51;5.30;;;1.40;;
24439;SDS011;12618;54.386;18.394;2023-06-05T15:15:27;19.10;;;2.10;;
24439;SDS011;12618;54.386;18.394;2023-06-05T15:17:59;2.40;;;1.30;;
24439;SDS011;12618;54.386;18.394;2023-06-05T15:20:32;6.80;;;1.30;;
24439;SDS011;12618;54.386;18.394;2023-06-05T15:23:04;5.30;;;1.30;;
24439;SDS011;12618;54.386;18.394;2023-06-05T15:25:46;6.20;;;1.60;;
24439;SDS011;12618;54.386;18.394;2023-06-05T15:28:18;5.20;;;1.10;;
24439;SDS011;12618;54.386;18.394;2023-06-05T15:30:50;10.70;;;1.80;;
24439;SDS011;12618;54.386;18.394;2023-06-05T15:33:22;3.80;;;1.00;;
24439;SDS011;12618;54.386;18.394;2023-06-05T15:35:54;3.80;;;1.00;;
24439;SDS011;12618;54.386;18.394;2023-06-05T15:38:25;13.20;;;2.00;;
24439;SDS011;12618;54.386;18.394;2023-06-05T15:40:57;2.00;;;1.30;;